Flight Track Log - Related Links

Times and Time Zones

All times are in EDT time to prevent confusion due to time zone crossing. See the N693EE flight status page for this flight to view local times or setup timezone preferences in your user account.


Time Position Orientation Groundspeed Altitude Reporting Facility
EDT Latitude Longitude Course Direction KTS MPH feet Rate Location/Type
Sun 07:42:03 PM 39.5333 -104.8500 207° Southwest 136 157 7,200  Level Denver TRACON
Sun 07:43:03 PM 39.4833 -104.8500 180° South 144 166 8,400 1,250 Climbing Denver TRACON
Sun 07:44:03 PM 39.4500 -104.8500 180° South 157 181 9,700 1,289 Climbing Denver TRACON
Sun 07:45:04 PM 39.4019 -104.8394 170° South 167 192 11,000 1,268 Climbing Denver Center
Sun 07:46:06 PM 39.3472 -104.8314 174° South 183 211 12,300 1,306 Climbing Denver Center
Sun 07:47:00 PM 39.7527 -104.6816 207° Southwest  Level FlightAware Approximate
Sun 07:47:08 PM 39.2967 -104.8228 172° South 186 214 13,700  Level Denver Center
Sun 07:48:10 PM 39.2381 -104.8119 172° South 198 228 15,100 1,403 Climbing Denver Center
Sun 07:49:12 PM 39.1842 -104.7994 170° South 199 229 16,600 1,306 Climbing Denver Center
Sun 07:50:14 PM 39.1350 -104.8117 191° South 176 203 17,800 1,065 Climbing Denver Center
Sun 07:51:16 PM 39.0897 -104.8425 208° Southwest 180 207 18,800 1,113 Climbing Denver Center
Sun 07:52:18 PM 39.0411 -104.8703 204° Southwest 188 216 20,100 1,210 Climbing Denver Center
Sun 07:53:20 PM 38.9933 -104.8981 204° Southwest 188 216 21,300 1,258 Climbing Denver Center
Sun 07:54:22 PM 38.9589 -104.9450 227° Southwest 181 208 22,700 1,500 Climbing Denver Center
Sun 07:55:24 PM 38.9150 -104.9997 224° Southwest 183 211 24,400 1,258 Climbing Denver Center
Sun 07:56:26 PM 38.8775 -105.0439 223° Southwest 182 209 25,300 823 Climbing Denver Center
Sun 07:57:28 PM 38.8367 -105.0947 224° Southwest 191 220 26,100 677 Climbing Denver Center
Sun 07:58:30 PM 38.8006 -105.1361 222° Southwest 188 216 26,700 629 Climbing Denver Center
Sun 07:59:32 PM 38.7619 -105.1819 223° Southwest 189 217 27,400 624 Climbing Denver Center
Sun 08:00:35 PM 38.7142 -105.2394 223° Southwest 196 226 28,000 288 Climbing Denver Center
Sun 08:01:37 PM 38.6697 -105.2917 223° Southwest 212 244 28,000  Level Denver Center
Sun 08:02:39 PM 38.6228 -105.3492 224° Southwest 230 265 28,000  Level Denver Center
Sun 08:03:53 PM 38.5728 -105.4086 223° Southwest 244 281 28,000  Level Denver Center
Sun 08:04:55 PM 38.5125 -105.4781 222° Southwest 244 281 28,000  Level Denver Center
Sun 08:05:57 PM 38.4617 -105.5400 224° Southwest 250 288 28,000  Level Denver Center
Sun 08:06:59 PM 38.4003 -105.6119 223° Southwest 250 288 28,000  Level Denver Center
Sun 08:08:01 PM 38.3483 -105.6719 222° Southwest 253 291 28,000  Level Denver Center
Sun 08:09:03 PM 38.2989 -105.7317 223° Southwest 256 295 28,000  Level Denver Center
Sun 08:10:05 PM 38.2400 -105.7994 222° Southwest 255 293 28,000  Level Denver Center
Sun 08:11:07 PM 38.1903 -105.8572 222° Southwest 252 290 28,000 -48 Level Denver Center
Sun 08:12:10 PM 38.1317 -105.9258 223° Southwest 256 295 27,900  Descending Denver Center
Sun 08:13:11 PM 38.0900 -105.9736 222° Southwest 255 293 28,000 48 Climbing Denver Center
Sun 08:14:14 PM 38.0231 -106.0519 223° Southwest 257 296 28,000  Level Denver Center
Sun 08:15:16 PM 37.9736 -106.1111 223° Southwest 256 295 28,000  Level Denver Center
Sun 08:16:18 PM 37.9144 -106.1789 222° Southwest 257 296 28,000  Level Denver Center
Sun 08:17:20 PM 37.8619 -106.2369 221° Southwest 260 299 28,000  Level Denver Center
Sun 08:18:22 PM 37.8047 -106.3044 223° Southwest 256 295 28,000  Level Denver Center
Sun 08:19:24 PM 37.7553 -106.3617 222° Southwest 253 291 28,000  Level Denver Center
Sun 08:20:26 PM 37.6964 -106.4281 222° Southwest 255 293 28,000  Level Denver Center
Sun 08:21:28 PM 37.6467 -106.4844 222° Southwest 252 290 28,000 -49 Level Denver Center
Sun 08:22:29 PM 37.5978 -106.5417 223° Southwest 250 288 27,900 -49 Descending Denver Center
Sun 08:23:31 PM 37.5392 -106.6072 222° Southwest 251 289 27,900  Level Denver Center
Sun 08:24:33 PM 37.4906 -106.6642 223° Southwest 251 289 27,900 48 Level Denver Center
Sun 08:25:35 PM 37.4333 -106.7278 221° Southwest 247 284 28,000  Climbing Denver Center
Sun 08:26:37 PM 37.3847 -106.7828 222° Southwest 246 283 27,900  Descending Denver Center
Sun 08:27:39 PM 37.3303 -106.8483 224° Southwest 244 281 28,000 48 Climbing Denver Center
Sun 08:28:41 PM 37.2825 -106.9000 221° Southwest 239 275 28,000  Level Denver Center
Sun 08:29:43 PM 37.2275 -106.9606 221° Southwest 236 272 28,000  Level Denver Center
Sun 08:30:45 PM 37.1808 -107.0122 221° Southwest 234 269 28,000 -48 Level Denver Center
Sun 08:31:47 PM 37.1258 -107.0742 222° Southwest 237 273 27,900  Descending Denver Center
Sun 08:32:48 PM 37.0811 -107.1256 223° Southwest 231 266 28,000 49 Climbing Denver Center
Sun 08:33:50 PM 37.0358 -107.1772 222° Southwest 229 264 28,000  Level Denver Center
Sun 08:34:52 PM 36.9803 -107.2381 221° Southwest 237 273 28,000 -48 Level Denver Center
Sun 08:35:54 PM 36.9336 -107.2908 222° Southwest 236 272 27,900  Descending Denver Center
Sun 08:36:56 PM 36.8794 -107.3511 222° Southwest 236 272 28,000 48 Climbing Denver Center
Sun 08:37:58 PM 36.8328 -107.4028 222° Southwest 236 272 28,000  Level Denver Center
Sun 08:39:00 PM 36.7769 -107.4653 222° Southwest 240 276 28,000  Level Denver Center
Sun 08:40:01 PM 36.7294 -107.5172 221° Southwest 238 274 28,000  Level Denver Center
Sun 08:41:03 PM 36.6731 -107.5786 221° Southwest 239 275 28,000 -48 Level Denver Center
Sun 08:42:05 PM 36.6236 -107.6336 222° Southwest 247 284 27,900  Descending Denver Center
Sun 08:43:18 PM 36.5750 -107.6872 222° Southwest 245 282 28,000 44 Climbing Denver Center
Sun 08:44:20 PM 36.5106 -107.7589 222° Southwest 243 280 28,000  Level Denver Center
Sun 08:45:22 PM 36.4536 -107.8208 221° Southwest 243 280 28,000  Level Denver Center
Sun 08:46:24 PM 36.4033 -107.8756 221° Southwest 248 285 28,000  Level Denver Center
Sun 08:47:05 PM 36.3717 -107.9125 223° Southwest 245 282 28,000  Level Albuquerque Center
Sun 08:48:07 PM 36.3139 -107.9747 221° Southwest 245 282 28,000 -48 Level Albuquerque Center
Sun 08:49:09 PM 36.2644 -108.0286 221° Southwest 246 283 27,900  Descending Albuquerque Center
Sun 08:50:10 PM 36.2078 -108.0914 222° Southwest 245 282 28,000 49 Climbing Albuquerque Center
Sun 08:51:12 PM 36.1583 -108.1431 220° Southwest 243 280 28,000  Level Albuquerque Center
Sun 08:51:44 PM 36.1339 -108.1692 221° Southwest 244 281 28,000  Level Denver Center
Sun 08:52:14 PM 36.1097 -108.1964 222° Southwest 242 278 28,000  Level Albuquerque Center
Sun 08:53:15 PM 36.0539 -108.2578 222° Southwest 241 277 28,000  Level Albuquerque Center
Sun 08:54:17 PM 36.0044 -108.3097 220° Southwest 242 278 28,000  Level Albuquerque Center
Sun 08:55:19 PM 35.9481 -108.3711 221° Southwest 241 277 28,000  Level Albuquerque Center
Sun 08:56:21 PM 35.8989 -108.4239 221° Southwest 243 280 28,000  Level Albuquerque Center
Sun 08:57:23 PM 35.8425 -108.4842 221° Southwest 240 276 28,000  Level Albuquerque Center
Sun 08:58:25 PM 35.7939 -108.5364 221° Southwest 240 276 28,000  Level Albuquerque Center
Sun 08:59:26 PM 35.7433 -108.5897 221° Southwest 245 282 28,000 -49 Level Albuquerque Center
Sun 09:00:28 PM 35.6858 -108.6519 221° Southwest 245 282 27,900  Descending Albuquerque Center
Sun 09:01:30 PM 35.6372 -108.7044 221° Southwest 244 281 28,000 49 Climbing Albuquerque Center
Sun 09:02:31 PM 35.5817 -108.7667 222° Southwest 242 278 28,000  Level Albuquerque Center
Sun 09:03:33 PM 35.5347 -108.8200 223° Southwest 240 276 28,000  Level Albuquerque Center
Sun 09:04:35 PM 35.4875 -108.8731 222° Southwest 240 276 28,000  Level Albuquerque Center
Sun 09:05:36 PM 35.4311 -108.9331 221° Southwest 239 275 28,000 -49 Level Albuquerque Center
Sun 09:06:38 PM 35.3825 -108.9889 223° Southwest 246 283 27,900  Descending Albuquerque Center
Sun 09:07:40 PM 35.3269 -109.0528 223° Southwest 245 282 28,000 49 Climbing Albuquerque Center
Sun 09:08:41 PM 35.2775 -109.1044 220° Southwest 243 280 28,000  Level Albuquerque Center
Sun 09:09:43 PM 35.2069 -109.1439 205° Southwest 246 283 28,000  Level Albuquerque Center
Sun 09:10:45 PM 35.1567 -109.1897 217° Southwest 241 277 28,000  Level Albuquerque Center
Sun 09:11:46 PM 35.1156 -109.2494 230° Southwest 239 275 28,000  Level Albuquerque Center
Sun 09:12:48 PM 35.0633 -109.3156 226° Southwest 242 278 28,000 -48 Level Albuquerque Center
Sun 09:13:50 PM 35.0192 -109.3736 227° Southwest 243 280 27,900  Descending Albuquerque Center
Sun 09:14:52 PM 34.9667 -109.4397 226° Southwest 243 280 28,000 49 Climbing Albuquerque Center
Sun 09:15:53 PM 34.9206 -109.4942 224° Southwest 241 277 28,000  Level Albuquerque Center
Sun 09:16:55 PM 34.8683 -109.5603 226° Southwest 243 280 28,000 -48 Level Albuquerque Center
Sun 09:17:57 PM 34.8233 -109.6186 227° Southwest 244 281 27,900  Descending Albuquerque Center
Sun 09:18:58 PM 34.7789 -109.6761 227° Southwest 244 281 28,000 49 Climbing Albuquerque Center
Sun 09:20:00 PM 34.7256 -109.7431 226° Southwest 245 282 28,000  Level Albuquerque Center
Sun 09:21:02 PM 34.6811 -109.7986 226° Southwest 243 280 28,000  Level Albuquerque Center
Sun 09:22:04 PM 34.6281 -109.8644 226° Southwest 243 280 28,000  Level Albuquerque Center
Sun 09:23:05 PM 34.5825 -109.9208 226° Southwest 244 281 28,000  Level Albuquerque Center
Sun 09:24:07 PM 34.5303 -109.9881 227° Southwest 244 281 28,000 -484 Level Albuquerque Center
Sun 09:25:09 PM 34.4836 -110.0450 225° Southwest 246 283 27,000 -1,113 Descending Albuquerque Center
Sun 09:26:11 PM 34.4308 -110.1106 226° Southwest 272 313 25,700 -1,366 Descending Albuquerque Center
Sun 09:27:12 PM 34.3692 -110.1903 227° Southwest 287 330 24,200 -1,415 Descending Albuquerque Center
Sun 09:28:14 PM 34.3161 -110.2553 225° Southwest 285 328 22,800 -1,452 Descending Albuquerque Center
Sun 09:29:16 PM 34.2536 -110.3328 226° Southwest 289 333 21,200 -1,452 Descending Albuquerque Center
Sun 09:30:18 PM 34.1981 -110.4019 226° Southwest 289 333 19,800 -1,306 Descending Albuquerque Center
Sun 09:31:20 PM 34.1361 -110.4764 225° Southwest 307 353 18,500 -1,268 Descending Albuquerque Center
Sun 09:32:21 PM 34.0797 -110.5467 226° Southwest 301 346 17,200 -1,220 Descending Albuquerque Center
Sun 09:33:23 PM 34.0231 -110.6158 225° Southwest 294 338 16,000 -1,113 Descending Albuquerque Center
Sun 09:34:25 PM 33.9592 -110.6942 225° Southwest 294 338 14,900 -1,016 Descending Albuquerque Center
Sun 09:35:27 PM 33.9064 -110.7597 226° Southwest 283 326 13,900 -919 Descending Albuquerque Center
Sun 09:36:29 PM 33.8536 -110.8239 225° Southwest 273 314 13,000 -878 Descending Albuquerque Center
Sun 09:37:30 PM 33.8058 -110.8933 230° Southwest 271 312 12,100 -878 Descending Albuquerque Center
Sun 09:38:32 PM 33.7603 -110.9639 232° Southwest 268 308 11,200 -968 Descending Albuquerque Center
Sun 09:39:34 PM 33.7067 -111.0469 232° Southwest 264 304 10,100 -581 Descending Albuquerque Center
Sun 09:40:36 PM 33.6628 -111.1144 232° Southwest 256 295 10,000 -48 Descending Albuquerque Center
Sun 09:41:38 PM 33.6200 -111.1772 231° Southwest 246 283 10,000 -341 Level Albuquerque Center
Sun 09:42:39 PM 33.5783 -111.2431 233° Southwest 247 284 9,300 -829 Descending Albuquerque Center
Sun 09:43:41 PM 33.5336 -111.3111 232° Southwest 256 295 8,300 -629 Descending Albuquerque Center
Sun 09:44:43 PM 33.5294 -111.3944 267° West 252 290 8,000 -1,016 Descending Albuquerque Center
Sun 09:45:45 PM 33.5264 -111.4819 268° West 261 300 6,200 -1,220 Descending Albuquerque Center
Sun 09:46:46 PM 33.5050 -111.5747 255° West 236 272 5,500 -976 Descending Albuquerque Center
Sun 09:47:48 PM 33.4917 -111.6289 254° West 174 200 4,200 -1,306 Descending Albuquerque Center
Sun 09:48:50 PM 33.4839 -111.6733 258° West 139 160 2,800 -1,161 Descending Albuquerque Center
Sun 09:49:52 PM 33.4725 -111.7106 250° West 117 135 1,800 -634 Descending Albuquerque Center
Sun 09:50:53 PM 33.4594 -111.7344 237° Southwest 101 116 1,500 -295 Descending Albuquerque Center
Sun 09:52:00 PM 33.4608 -111.7283 90° East  Level Estimated

Login

Don't have an account? Register now (free) for customized features, flight alerts, and more!